sensor_id;sensor_type;location;lat;lon;timestamp;P1;durP1;ratioP1;P2;durP2;ratioP2
75408;SDS011;63979;55.644;37.734;2023-05-10T00:04:50;6.32;;;4.30;;
75408;SDS011;63979;55.644;37.734;2023-05-10T00:09:51;8.25;;;4.13;;
75408;SDS011;63979;55.644;37.734;2023-05-10T00:14:52;8.07;;;4.40;;
75408;SDS011;63979;55.644;37.734;2023-05-10T00:19:54;7.47;;;4.70;;
75408;SDS011;63979;55.644;37.734;2023-05-10T00:24:55;8.38;;;4.38;;
75408;SDS011;63979;55.644;37.734;2023-05-10T00:29:56;8.65;;;5.10;;
75408;SDS011;63979;55.644;37.734;2023-05-10T00:34:57;7.72;;;4.05;;
75408;SDS011;63979;55.644;37.734;2023-05-10T00:39:59;7.05;;;4.05;;
75408;SDS011;63979;55.644;37.734;2023-05-10T00:45:00;8.30;;;4.20;;
75408;SDS011;63979;55.644;37.734;2023-05-10T00:50:01;15.63;;;4.53;;
75408;SDS011;63979;55.644;37.734;2023-05-10T00:55:04;7.95;;;4.22;;
75408;SDS011;63979;55.644;37.734;2023-05-10T01:00:07;10.35;;;4.57;;
75408;SDS011;63979;55.644;37.734;2023-05-10T01:05:09;8.75;;;4.25;;
75408;SDS011;63979;55.644;37.734;2023-05-10T01:10:10;7.15;;;4.00;;
75408;SDS011;63979;55.644;37.734;2023-05-10T01:15:11;7.65;;;4.07;;
75408;SDS011;63979;55.644;37.734;2023-05-10T01:20:14;6.05;;;3.75;;
75408;SDS011;63979;55.644;37.734;2023-05-10T01:42:07;7.95;;;4.03;;
75408;SDS011;63979;55.644;37.734;2023-05-10T01:47:12;14.68;;;5.28;;
75408;SDS011;63979;55.644;37.734;2023-05-10T01:52:18;10.25;;;4.20;;
75408;SDS011;63979;55.644;37.734;2023-05-10T01:57:24;12.13;;;4.10;;
75408;SDS011;63979;55.644;37.734;2023-05-10T02:02:28;8.25;;;3.83;;
75408;SDS011;63979;55.644;37.734;2023-05-10T02:07:36;7.00;;;3.95;;
75408;SDS011;63979;55.644;37.734;2023-05-10T02:12:39;7.00;;;3.95;;
75408;SDS011;63979;55.644;37.734;2023-05-10T02:17:43;8.65;;;3.63;;
75408;SDS011;63979;55.644;37.734;2023-05-10T02:22:47;11.57;;;4.72;;
75408;SDS011;63979;55.644;37.734;2023-05-10T02:27:51;8.48;;;3.95;;
75408;SDS011;63979;55.644;37.734;2023-05-10T02:32:55;8.13;;;3.95;;
75408;SDS011;63979;55.644;37.734;2023-05-10T02:37:57;9.30;;;4.03;;
75408;SDS011;63979;55.644;37.734;2023-05-10T02:42:59;11.10;;;4.45;;
75408;SDS011;63979;55.644;37.734;2023-05-10T02:48:03;8.45;;;4.95;;
75408;SDS011;63979;55.644;37.734;2023-05-10T02:53:06;10.07;;;4.10;;
75408;SDS011;63979;55.644;37.734;2023-05-10T02:58:12;6.45;;;3.88;;
75408;SDS011;63979;55.644;37.734;2023-05-10T03:03:13;7.85;;;4.70;;
75408;SDS011;63979;55.644;37.734;2023-05-10T03:08:14;7.85;;;4.05;;
75408;SDS011;63979;55.644;37.734;2023-05-10T03:13:37;8.30;;;4.30;;
75408;SDS011;63979;55.644;37.734;2023-05-10T03:23:46;6.13;;;3.70;;
75408;SDS011;63979;55.644;37.734;2023-05-10T03:28:51;10.32;;;6.50;;
75408;SDS011;63979;55.644;37.734;2023-05-10T03:33:53;6.75;;;4.13;;
75408;SDS011;63979;55.644;37.734;2023-05-10T03:38:54;7.75;;;4.70;;
75408;SDS011;63979;55.644;37.734;2023-05-10T03:43:55;8.80;;;4.07;;
75408;SDS011;63979;55.644;37.734;2023-05-10T03:48:56;9.75;;;3.65;;
75408;SDS011;63979;55.644;37.734;2023-05-10T03:53:57;11.43;;;4.13;;
75408;SDS011;63979;55.644;37.734;2023-05-10T03:58:58;13.95;;;4.40;;
75408;SDS011;63979;55.644;37.734;2023-05-10T04:03:59;7.47;;;3.45;;
75408;SDS011;63979;55.644;37.734;2023-05-10T04:09:01;7.45;;;3.63;;
75408;SDS011;63979;55.644;37.734;2023-05-10T04:14:04;6.25;;;3.45;;
75408;SDS011;63979;55.644;37.734;2023-05-10T04:19:05;6.72;;;3.92;;
75408;SDS011;63979;55.644;37.734;2023-05-10T04:24:06;9.45;;;3.63;;
75408;SDS011;63979;55.644;37.734;2023-05-10T04:29:07;8.75;;;3.50;;
75408;SDS011;63979;55.644;37.734;2023-05-10T04:34:08;6.00;;;3.70;;
75408;SDS011;63979;55.644;37.734;2023-05-10T04:39:10;7.55;;;3.78;;
75408;SDS011;63979;55.644;37.734;2023-05-10T04:44:10;14.18;;;6.13;;
75408;SDS011;63979;55.644;37.734;2023-05-10T04:49:12;6.38;;;4.35;;
75408;SDS011;63979;55.644;37.734;2023-05-10T04:54:13;7.05;;;3.75;;
75408;SDS011;63979;55.644;37.734;2023-05-10T04:59:14;8.57;;;3.33;;
75408;SDS011;63979;55.644;37.734;2023-05-10T05:04:15;7.53;;;3.25;;
75408;SDS011;63979;55.644;37.734;2023-05-10T05:09:16;7.88;;;3.22;;
75408;SDS011;63979;55.644;37.734;2023-05-10T05:14:17;7.03;;;3.03;;
75408;SDS011;63979;55.644;37.734;2023-05-10T05:19:18;7.95;;;2.75;;
75408;SDS011;63979;55.644;37.734;2023-05-10T05:24:18;7.05;;;3.22;;
75408;SDS011;63979;55.644;37.734;2023-05-10T05:29:20;6.18;;;2.97;;
75408;SDS011;63979;55.644;37.734;2023-05-10T05:34:21;4.93;;;2.70;;
75408;SDS011;63979;55.644;37.734;2023-05-10T05:39:22;9.85;;;3.10;;
75408;SDS011;63979;55.644;37.734;2023-05-10T05:44:23;4.80;;;2.63;;
75408;SDS011;63979;55.644;37.734;2023-05-10T05:49:24;4.55;;;1.88;;
75408;SDS011;63979;55.644;37.734;2023-05-10T05:54:25;5.28;;;1.88;;
75408;SDS011;63979;55.644;37.734;2023-05-10T05:59:26;2.65;;;2.00;;
75408;SDS011;63979;55.644;37.734;2023-05-10T06:04:27;2.58;;;1.45;;
75408;SDS011;63979;55.644;37.734;2023-05-10T06:09:29;3.95;;;1.90;;
75408;SDS011;63979;55.644;37.734;2023-05-10T06:14:30;9.30;;;1.90;;
75408;SDS011;63979;55.644;37.734;2023-05-10T06:19:31;3.30;;;1.50;;
75408;SDS011;63979;55.644;37.734;2023-05-10T06:29:33;2.33;;;1.65;;
75408;SDS011;63979;55.644;37.734;2023-05-10T06:34:34;7.60;;;2.25;;
75408;SDS011;63979;55.644;37.734;2023-05-10T06:44:37;7.10;;;2.72;;
75408;SDS011;63979;55.644;37.734;2023-05-10T06:49:38;8.07;;;1.80;;
75408;SDS011;63979;55.644;37.734;2023-05-10T06:54:40;2.55;;;1.48;;
75408;SDS011;63979;55.644;37.734;2023-05-10T06:59:41;2.50;;;1.30;;
75408;SDS011;63979;55.644;37.734;2023-05-10T07:04:42;4.72;;;1.60;;
75408;SDS011;63979;55.644;37.734;2023-05-10T07:09:43;5.65;;;1.52;;
75408;SDS011;63979;55.644;37.734;2023-05-10T07:14:44;3.38;;;2.63;;
75408;SDS011;63979;55.644;37.734;2023-05-10T07:19:46;5.13;;;1.20;;
75408;SDS011;63979;55.644;37.734;2023-05-10T07:24:47;3.25;;;1.65;;
75408;SDS011;63979;55.644;37.734;2023-05-10T07:29:48;3.50;;;1.70;;
75408;SDS011;63979;55.644;37.734;2023-05-10T07:34:49;3.35;;;1.80;;
75408;SDS011;63979;55.644;37.734;2023-05-10T07:39:50;3.47;;;2.00;;
75408;SDS011;63979;55.644;37.734;2023-05-10T07:44:51;4.53;;;1.40;;
75408;SDS011;63979;55.644;37.734;2023-05-10T07:49:52;4.75;;;1.80;;
75408;SDS011;63979;55.644;37.734;2023-05-10T07:54:53;3.47;;;1.90;;
75408;SDS011;63979;55.644;37.734;2023-05-10T07:59:55;5.88;;;2.85;;
75408;SDS011;63979;55.644;37.734;2023-05-10T08:04:56;2.67;;;1.40;;
75408;SDS011;63979;55.644;37.734;2023-05-10T08:09:57;3.90;;;1.67;;
75408;SDS011;63979;55.644;37.734;2023-05-10T08:14:59;4.95;;;2.20;;
75408;SDS011;63979;55.644;37.734;2023-05-10T08:20:00;3.80;;;1.65;;
75408;SDS011;63979;55.644;37.734;2023-05-10T08:25:01;6.07;;;1.92;;
75408;SDS011;63979;55.644;37.734;2023-05-10T08:30:05;4.60;;;1.75;;
75408;SDS011;63979;55.644;37.734;2023-05-10T08:35:07;3.42;;;1.33;;
75408;SDS011;63979;55.644;37.734;2023-05-10T08:40:09;2.45;;;1.33;;
75408;SDS011;63979;55.644;37.734;2023-05-10T08:45:12;1.30;;;1.10;;
75408;SDS011;63979;55.644;37.734;2023-05-10T08:50:15;1.90;;;1.70;;
75408;SDS011;63979;55.644;37.734;2023-05-10T08:55:20;3.88;;;1.75;;
75408;SDS011;63979;55.644;37.734;2023-05-10T09:00:23;2.40;;;1.75;;
75408;SDS011;63979;55.644;37.734;2023-05-10T09:05:25;1.73;;;1.60;;
75408;SDS011;63979;55.644;37.734;2023-05-10T09:10:26;2.80;;;1.90;;
75408;SDS011;63979;55.644;37.734;2023-05-10T09:15:28;2.53;;;2.15;;
75408;SDS011;63979;55.644;37.734;2023-05-10T09:20:29;3.28;;;1.75;;
75408;SDS011;63979;55.644;37.734;2023-05-10T09:25:31;5.80;;;1.88;;
75408;SDS011;63979;55.644;37.734;2023-05-10T09:30:35;4.35;;;1.77;;
75408;SDS011;63979;55.644;37.734;2023-05-10T09:35:36;2.22;;;2.03;;
75408;SDS011;63979;55.644;37.734;2023-05-10T09:40:37;3.45;;;1.75;;
75408;SDS011;63979;55.644;37.734;2023-05-10T09:45:38;3.80;;;2.05;;
75408;SDS011;63979;55.644;37.734;2023-05-10T09:50:41;5.13;;;2.30;;
75408;SDS011;63979;55.644;37.734;2023-05-10T09:55:44;4.90;;;2.20;;
75408;SDS011;63979;55.644;37.734;2023-05-10T10:00:46;3.00;;;1.70;;
75408;SDS011;63979;55.644;37.734;2023-05-10T10:05:51;3.08;;;2.22;;
75408;SDS011;63979;55.644;37.734;2023-05-10T10:10:53;4.65;;;2.42;;
75408;SDS011;63979;55.644;37.734;2023-05-10T10:15:54;4.18;;;2.30;;
75408;SDS011;63979;55.644;37.734;2023-05-10T10:20:55;2.92;;;1.80;;
75408;SDS011;63979;55.644;37.734;2023-05-10T10:25:56;4.65;;;2.33;;
75408;SDS011;63979;55.644;37.734;2023-05-10T10:31:00;2.83;;;1.75;;
75408;SDS011;63979;55.644;37.734;2023-05-10T10:36:15;3.53;;;1.90;;
75408;SDS011;63979;55.644;37.734;2023-05-10T10:41:38;4.90;;;2.28;;
75408;SDS011;63979;55.644;37.734;2023-05-10T10:57:21;3.30;;;2.05;;
75408;SDS011;63979;55.644;37.734;2023-05-10T11:07:51;5.95;;;2.33;;
75408;SDS011;63979;55.644;37.734;2023-05-10T11:18:20;4.47;;;2.03;;
75408;SDS011;63979;55.644;37.734;2023-05-10T11:23:32;5.70;;;3.17;;
75408;SDS011;63979;55.644;37.734;2023-05-10T11:28:34;4.43;;;2.80;;
75408;SDS011;63979;55.644;37.734;2023-05-10T11:33:45;3.00;;;2.33;;
75408;SDS011;63979;55.644;37.734;2023-05-10T11:38:47;8.45;;;3.03;;
75408;SDS011;63979;55.644;37.734;2023-05-10T11:43:52;7.18;;;2.30;;
75408;SDS011;63979;55.644;37.734;2023-05-10T11:48:58;2.88;;;2.00;;
75408;SDS011;63979;55.644;37.734;2023-05-10T11:59:09;2.95;;;1.38;;
75408;SDS011;63979;55.644;37.734;2023-05-10T12:04:10;2.28;;;1.73;;
75408;SDS011;63979;55.644;37.734;2023-05-10T12:09:11;7.47;;;2.20;;
75408;SDS011;63979;55.644;37.734;2023-05-10T12:14:12;4.57;;;2.03;;
75408;SDS011;63979;55.644;37.734;2023-05-10T12:19:17;5.20;;;2.78;;
75408;SDS011;63979;55.644;37.734;2023-05-10T12:24:20;3.33;;;1.73;;
75408;SDS011;63979;55.644;37.734;2023-05-10T12:29:21;9.48;;;2.42;;
75408;SDS011;63979;55.644;37.734;2023-05-10T12:34:26;5.70;;;2.28;;
75408;SDS011;63979;55.644;37.734;2023-05-10T12:39:40;3.40;;;2.47;;
75408;SDS011;63979;55.644;37.734;2023-05-10T12:44:42;4.00;;;1.88;;
75408;SDS011;63979;55.644;37.734;2023-05-10T12:49:43;4.65;;;1.83;;
75408;SDS011;63979;55.644;37.734;2023-05-10T12:54:44;3.17;;;1.85;;
75408;SDS011;63979;55.644;37.734;2023-05-10T12:59:45;5.63;;;2.58;;
75408;SDS011;63979;55.644;37.734;2023-05-10T13:04:46;5.07;;;2.50;;
75408;SDS011;63979;55.644;37.734;2023-05-10T13:09:47;3.40;;;1.98;;
75408;SDS011;63979;55.644;37.734;2023-05-10T13:14:48;6.25;;;2.17;;
75408;SDS011;63979;55.644;37.734;2023-05-10T13:24:49;4.03;;;2.35;;
75408;SDS011;63979;55.644;37.734;2023-05-10T13:29:51;5.80;;;2.30;;
75408;SDS011;63979;55.644;37.734;2023-05-10T13:34:51;6.90;;;3.10;;
75408;SDS011;63979;55.644;37.734;2023-05-10T13:39:52;13.13;;;9.95;;
75408;SDS011;63979;55.644;37.734;2023-05-10T13:44:53;6.15;;;1.85;;
75408;SDS011;63979;55.644;37.734;2023-05-10T13:49:54;3.45;;;1.67;;
75408;SDS011;63979;55.644;37.734;2023-05-10T13:54:55;2.78;;;1.63;;
75408;SDS011;63979;55.644;37.734;2023-05-10T14:04:57;2.17;;;1.42;;
75408;SDS011;63979;55.644;37.734;2023-05-10T14:09:58;1.52;;;1.10;;
75408;SDS011;63979;55.644;37.734;2023-05-10T14:14:59;3.88;;;1.50;;
75408;SDS011;63979;55.644;37.734;2023-05-10T14:25:01;3.38;;;1.50;;
75408;SDS011;63979;55.644;37.734;2023-05-10T14:30:05;2.22;;;1.20;;
75408;SDS011;63979;55.644;37.734;2023-05-10T14:35:06;2.30;;;1.75;;
75408;SDS011;63979;55.644;37.734;2023-05-10T14:40:07;4.35;;;1.75;;
75408;SDS011;63979;55.644;37.734;2023-05-10T14:45:09;2.40;;;1.20;;
75408;SDS011;63979;55.644;37.734;2023-05-10T14:50:11;3.22;;;1.80;;
75408;SDS011;63979;55.644;37.734;2023-05-10T14:55:12;4.18;;;1.67;;
75408;SDS011;63979;55.644;37.734;2023-05-10T15:00:13;2.88;;;2.03;;
75408;SDS011;63979;55.644;37.734;2023-05-10T15:05:16;2.90;;;1.90;;
75408;SDS011;63979;55.644;37.734;2023-05-10T15:10:17;4.50;;;1.42;;
75408;SDS011;63979;55.644;37.734;2023-05-10T15:15:20;2.40;;;1.30;;
75408;SDS011;63979;55.644;37.734;2023-05-10T15:25:22;7.03;;;2.40;;
75408;SDS011;63979;55.644;37.734;2023-05-10T15:30:24;3.13;;;1.67;;
75408;SDS011;63979;55.644;37.734;2023-05-10T15:35:25;2.78;;;1.48;;
75408;SDS011;63979;55.644;37.734;2023-05-10T15:40:27;5.55;;;2.33;;
75408;SDS011;63979;55.644;37.734;2023-05-10T15:45:29;4.25;;;1.75;;
75408;SDS011;63979;55.644;37.734;2023-05-10T15:50:30;7.90;;;2.30;;
75408;SDS011;63979;55.644;37.734;2023-05-10T15:55:31;5.32;;;2.70;;
75408;SDS011;63979;55.644;37.734;2023-05-10T16:05:33;4.95;;;2.55;;
75408;SDS011;63979;55.644;37.734;2023-05-10T16:10:35;6.03;;;2.20;;
75408;SDS011;63979;55.644;37.734;2023-05-10T16:15:38;5.80;;;2.53;;
75408;SDS011;63979;55.644;37.734;2023-05-10T16:20:38;9.90;;;2.40;;
75408;SDS011;63979;55.644;37.734;2023-05-10T16:25:39;5.80;;;2.50;;
75408;SDS011;63979;55.644;37.734;2023-05-10T16:30:41;7.45;;;2.20;;
75408;SDS011;63979;55.644;37.734;2023-05-10T16:35:43;8.55;;;3.13;;
75408;SDS011;63979;55.644;37.734;2023-05-10T16:40:44;7.18;;;2.85;;
75408;SDS011;63979;55.644;37.734;2023-05-10T16:45:45;15.60;;;6.65;;
75408;SDS011;63979;55.644;37.734;2023-05-10T16:50:46;5.03;;;3.25;;
75408;SDS011;63979;55.644;37.734;2023-05-10T16:55:48;10.80;;;4.72;;
75408;SDS011;63979;55.644;37.734;2023-05-10T17:00:49;9.57;;;3.88;;
75408;SDS011;63979;55.644;37.734;2023-05-10T17:05:50;11.98;;;4.50;;
75408;SDS011;63979;55.644;37.734;2023-05-10T17:10:51;5.97;;;3.30;;
75408;SDS011;63979;55.644;37.734;2023-05-10T17:15:53;10.02;;;3.33;;
75408;SDS011;63979;55.644;37.734;2023-05-10T17:20:54;10.40;;;5.68;;
75408;SDS011;63979;55.644;37.734;2023-05-10T17:30:57;8.05;;;4.35;;
75408;SDS011;63979;55.644;37.734;2023-05-10T17:35:58;44.03;;;17.70;;
75408;SDS011;63979;55.644;37.734;2023-05-10T17:40:59;5.25;;;2.70;;
75408;SDS011;63979;55.644;37.734;2023-05-10T17:46:01;15.25;;;4.13;;
75408;SDS011;63979;55.644;37.734;2023-05-10T17:51:03;11.68;;;4.10;;
75408;SDS011;63979;55.644;37.734;2023-05-10T17:56:04;17.63;;;9.75;;
75408;SDS011;63979;55.644;37.734;2023-05-10T18:01:05;15.75;;;6.65;;
75408;SDS011;63979;55.644;37.734;2023-05-10T18:06:06;7.20;;;3.55;;
75408;SDS011;63979;55.644;37.734;2023-05-10T18:11:07;10.88;;;2.80;;
75408;SDS011;63979;55.644;37.734;2023-05-10T18:21:11;8.60;;;3.85;;
75408;SDS011;63979;55.644;37.734;2023-05-10T18:26:13;8.40;;;3.33;;
75408;SDS011;63979;55.644;37.734;2023-05-10T18:31:14;17.23;;;3.83;;
75408;SDS011;63979;55.644;37.734;2023-05-10T18:36:15;12.90;;;3.33;;
75408;SDS011;63979;55.644;37.734;2023-05-10T18:41:17;11.77;;;4.70;;
75408;SDS011;63979;55.644;37.734;2023-05-10T18:46:18;11.55;;;4.72;;
75408;SDS011;63979;55.644;37.734;2023-05-10T18:51:20;14.55;;;5.80;;
75408;SDS011;63979;55.644;37.734;2023-05-10T18:56:22;9.95;;;4.93;;
75408;SDS011;63979;55.644;37.734;2023-05-10T19:01:23;12.77;;;5.10;;
75408;SDS011;63979;55.644;37.734;2023-05-10T19:06:24;12.40;;;5.72;;
75408;SDS011;63979;55.644;37.734;2023-05-10T19:11:25;16.00;;;5.63;;
75408;SDS011;63979;55.644;37.734;2023-05-10T19:16:26;11.20;;;5.53;;
75408;SDS011;63979;55.644;37.734;2023-05-10T19:21:29;13.00;;;5.97;;
75408;SDS011;63979;55.644;37.734;2023-05-10T19:26:30;14.98;;;6.05;;
75408;SDS011;63979;55.644;37.734;2023-05-10T19:31:31;19.00;;;6.35;;
75408;SDS011;63979;55.644;37.734;2023-05-10T19:36:33;12.75;;;5.93;;
75408;SDS011;63979;55.644;37.734;2023-05-10T19:41:34;14.10;;;6.20;;
75408;SDS011;63979;55.644;37.734;2023-05-10T19:46:35;14.55;;;4.88;;
75408;SDS011;63979;55.644;37.734;2023-05-10T19:51:36;12.73;;;5.07;;
75408;SDS011;63979;55.644;37.734;2023-05-10T19:56:37;14.50;;;5.55;;
75408;SDS011;63979;55.644;37.734;2023-05-10T20:01:38;13.70;;;6.43;;
75408;SDS011;63979;55.644;37.734;2023-05-10T20:06:39;18.27;;;6.10;;
75408;SDS011;63979;55.644;37.734;2023-05-10T20:11:40;19.58;;;8.07;;
75408;SDS011;63979;55.644;37.734;2023-05-10T20:16:41;19.40;;;6.63;;
75408;SDS011;63979;55.644;37.734;2023-05-10T20:21:43;23.60;;;6.97;;
75408;SDS011;63979;55.644;37.734;2023-05-10T20:26:44;27.33;;;9.15;;
75408;SDS011;63979;55.644;37.734;2023-05-10T20:31:45;21.42;;;7.60;;
75408;SDS011;63979;55.644;37.734;2023-05-10T20:36:46;29.23;;;8.48;;
75408;SDS011;63979;55.644;37.734;2023-05-10T20:41:47;15.05;;;7.18;;
75408;SDS011;63979;55.644;37.734;2023-05-10T20:46:49;20.42;;;9.50;;
75408;SDS011;63979;55.644;37.734;2023-05-10T20:51:50;20.33;;;8.45;;
75408;SDS011;63979;55.644;37.734;2023-05-10T20:56:51;17.70;;;7.63;;
75408;SDS011;63979;55.644;37.734;2023-05-10T21:01:52;18.20;;;7.18;;
75408;SDS011;63979;55.644;37.734;2023-05-10T21:06:53;25.75;;;9.18;;
75408;SDS011;63979;55.644;37.734;2023-05-10T21:11:56;23.40;;;8.95;;
75408;SDS011;63979;55.644;37.734;2023-05-10T21:16:58;20.77;;;8.00;;
75408;SDS011;63979;55.644;37.734;2023-05-10T21:21:59;23.00;;;9.40;;
75408;SDS011;63979;55.644;37.734;2023-05-10T21:27:00;17.13;;;8.60;;
75408;SDS011;63979;55.644;37.734;2023-05-10T21:32:02;21.67;;;9.43;;
75408;SDS011;63979;55.644;37.734;2023-05-10T21:37:03;25.45;;;8.95;;
75408;SDS011;63979;55.644;37.734;2023-05-10T21:42:04;21.92;;;8.43;;
75408;SDS011;63979;55.644;37.734;2023-05-10T21:47:05;25.77;;;9.10;;
75408;SDS011;63979;55.644;37.734;2023-05-10T21:52:06;26.90;;;8.98;;
75408;SDS011;63979;55.644;37.734;2023-05-10T21:57:07;23.20;;;8.25;;
75408;SDS011;63979;55.644;37.734;2023-05-10T22:02:09;32.10;;;9.88;;
75408;SDS011;63979;55.644;37.734;2023-05-10T22:07:10;21.92;;;8.35;;
75408;SDS011;63979;55.644;37.734;2023-05-10T22:12:11;15.63;;;6.13;;
75408;SDS011;63979;55.644;37.734;2023-05-10T22:17:12;16.00;;;7.35;;
75408;SDS011;63979;55.644;37.734;2023-05-10T22:22:13;27.38;;;9.15;;
75408;SDS011;63979;55.644;37.734;2023-05-10T22:27:14;22.17;;;9.32;;
75408;SDS011;63979;55.644;37.734;2023-05-10T22:32:16;27.25;;;8.60;;
75408;SDS011;63979;55.644;37.734;2023-05-10T22:37:18;20.00;;;8.02;;
75408;SDS011;63979;55.644;37.734;2023-05-10T22:42:19;26.83;;;9.90;;
75408;SDS011;63979;55.644;37.734;2023-05-10T22:47:20;22.02;;;9.73;;
75408;SDS011;63979;55.644;37.734;2023-05-10T22:52:21;27.95;;;9.60;;
75408;SDS011;63979;55.644;37.734;2023-05-10T22:57:22;20.70;;;8.68;;
75408;SDS011;63979;55.644;37.734;2023-05-10T23:02:24;21.60;;;8.55;;
75408;SDS011;63979;55.644;37.734;2023-05-10T23:07:25;17.98;;;8.57;;
75408;SDS011;63979;55.644;37.734;2023-05-10T23:12:26;26.88;;;9.00;;
75408;SDS011;63979;55.644;37.734;2023-05-10T23:17:27;17.92;;;6.60;;
75408;SDS011;63979;55.644;37.734;2023-05-10T23:22:28;14.05;;;7.32;;
75408;SDS011;63979;55.644;37.734;2023-05-10T23:27:30;12.10;;;5.80;;
75408;SDS011;63979;55.644;37.734;2023-05-10T23:32:30;14.27;;;4.97;;
75408;SDS011;63979;55.644;37.734;2023-05-10T23:37:32;12.90;;;5.18;;
75408;SDS011;63979;55.644;37.734;2023-05-10T23:42:33;26.50;;;7.18;;
75408;SDS011;63979;55.644;37.734;2023-05-10T23:47:34;20.90;;;7.75;;
75408;SDS011;63979;55.644;37.734;2023-05-10T23:52:36;14.45;;;6.25;;
75408;SDS011;63979;55.644;37.734;2023-05-10T23:57:37;16.95;;;6.22;;
